sensor_id;sensor_type;location;lat;lon;timestamp;P1;durP1;ratioP1;P2;durP2;ratioP2
54705;SDS011;40603;48.774;8.916;2024-02-21T00:00:28;10.77;;;3.67;;
54705;SDS011;40603;48.774;8.916;2024-02-21T00:02:53;14.60;;;3.28;;
54705;SDS011;40603;48.774;8.916;2024-02-21T00:05:18;16.35;;;3.92;;
54705;SDS011;40603;48.774;8.916;2024-02-21T00:07:43;13.18;;;3.30;;
54705;SDS011;40603;48.774;8.916;2024-02-21T00:10:09;16.65;;;3.70;;
54705;SDS011;40603;48.774;8.916;2024-02-21T00:12:34;14.15;;;3.22;;
54705;SDS011;40603;48.774;8.916;2024-02-21T00:15:00;10.75;;;3.55;;
54705;SDS011;40603;48.774;8.916;2024-02-21T00:17:25;10.63;;;3.33;;
54705;SDS011;40603;48.774;8.916;2024-02-21T00:19:51;13.82;;;3.70;;
54705;SDS011;40603;48.774;8.916;2024-02-21T00:22:16;12.63;;;3.40;;
54705;SDS011;40603;48.774;8.916;2024-02-21T00:24:41;8.43;;;3.60;;
54705;SDS011;40603;48.774;8.916;2024-02-21T00:27:07;9.52;;;2.85;;
54705;SDS011;40603;48.774;8.916;2024-02-21T00:29:32;17.08;;;4.00;;
54705;SDS011;40603;48.774;8.916;2024-02-21T00:31:57;14.57;;;4.03;;
54705;SDS011;40603;48.774;8.916;2024-02-21T00:34:23;16.02;;;3.60;;
54705;SDS011;40603;48.774;8.916;2024-02-21T00:36:48;12.48;;;3.33;;
54705;SDS011;40603;48.774;8.916;2024-02-21T00:39:14;12.13;;;3.90;;
54705;SDS011;40603;48.774;8.916;2024-02-21T00:41:40;10.27;;;3.35;;
54705;SDS011;40603;48.774;8.916;2024-02-21T00:44:05;10.80;;;3.28;;
54705;SDS011;40603;48.774;8.916;2024-02-21T00:46:31;12.35;;;3.15;;
54705;SDS011;40603;48.774;8.916;2024-02-21T00:48:56;15.00;;;3.72;;
54705;SDS011;40603;48.774;8.916;2024-02-21T00:51:21;12.50;;;3.40;;
54705;SDS011;40603;48.774;8.916;2024-02-21T00:53:47;8.77;;;3.50;;
54705;SDS011;40603;48.774;8.916;2024-02-21T00:56:12;16.10;;;3.58;;
54705;SDS011;40603;48.774;8.916;2024-02-21T00:58:37;10.57;;;2.92;;
54705;SDS011;40603;48.774;8.916;2024-02-21T01:01:03;16.98;;;3.80;;
54705;SDS011;40603;48.774;8.916;2024-02-21T01:03:28;8.93;;;2.95;;
54705;SDS011;40603;48.774;8.916;2024-02-21T01:05:53;11.73;;;3.20;;
54705;SDS011;40603;48.774;8.916;2024-02-21T01:08:19;11.82;;;2.88;;
54705;SDS011;40603;48.774;8.916;2024-02-21T01:10:44;9.40;;;3.22;;
54705;SDS011;40603;48.774;8.916;2024-02-21T01:13:09;12.43;;;2.42;;
54705;SDS011;40603;48.774;8.916;2024-02-21T01:15:34;8.57;;;2.50;;
54705;SDS011;40603;48.774;8.916;2024-02-21T01:18:00;9.73;;;2.58;;
54705;SDS011;40603;48.774;8.916;2024-02-21T01:20:26;12.77;;;2.95;;
54705;SDS011;40603;48.774;8.916;2024-02-21T01:22:51;13.43;;;2.70;;
54705;SDS011;40603;48.774;8.916;2024-02-21T01:25:16;10.70;;;2.67;;
54705;SDS011;40603;48.774;8.916;2024-02-21T01:27:41;12.23;;;3.25;;
54705;SDS011;40603;48.774;8.916;2024-02-21T01:30:07;12.50;;;3.13;;
54705;SDS011;40603;48.774;8.916;2024-02-21T01:32:33;10.65;;;2.80;;
54705;SDS011;40603;48.774;8.916;2024-02-21T01:34:58;8.18;;;2.70;;
54705;SDS011;40603;48.774;8.916;2024-02-21T01:37:23;8.45;;;2.60;;
54705;SDS011;40603;48.774;8.916;2024-02-21T01:39:49;9.20;;;2.97;;
54705;SDS011;40603;48.774;8.916;2024-02-21T01:42:17;11.40;;;2.88;;
54705;SDS011;40603;48.774;8.916;2024-02-21T01:44:42;11.63;;;2.70;;
54705;SDS011;40603;48.774;8.916;2024-02-21T01:47:07;14.73;;;3.10;;
54705;SDS011;40603;48.774;8.916;2024-02-21T01:49:33;6.60;;;3.03;;
54705;SDS011;40603;48.774;8.916;2024-02-21T01:51:58;5.10;;;2.40;;
54705;SDS011;40603;48.774;8.916;2024-02-21T01:54:23;7.28;;;2.65;;
54705;SDS011;40603;48.774;8.916;2024-02-21T01:56:50;11.90;;;2.90;;
54705;SDS011;40603;48.774;8.916;2024-02-21T01:59:15;13.23;;;2.60;;
54705;SDS011;40603;48.774;8.916;2024-02-21T02:01:41;12.18;;;2.97;;
54705;SDS011;40603;48.774;8.916;2024-02-21T02:04:06;9.20;;;2.95;;
54705;SDS011;40603;48.774;8.916;2024-02-21T02:06:32;7.55;;;2.95;;
54705;SDS011;40603;48.774;8.916;2024-02-21T02:08:57;11.48;;;2.78;;
54705;SDS011;40603;48.774;8.916;2024-02-21T02:11:23;10.95;;;3.72;;
54705;SDS011;40603;48.774;8.916;2024-02-21T02:13:48;7.60;;;2.80;;
54705;SDS011;40603;48.774;8.916;2024-02-21T02:16:13;14.27;;;3.70;;
54705;SDS011;40603;48.774;8.916;2024-02-21T02:18:39;10.68;;;2.90;;
54705;SDS011;40603;48.774;8.916;2024-02-21T02:21:04;11.35;;;2.72;;
54705;SDS011;40603;48.774;8.916;2024-02-21T02:23:39;11.32;;;2.53;;
54705;SDS011;40603;48.774;8.916;2024-02-21T02:26:04;8.65;;;2.70;;
54705;SDS011;40603;48.774;8.916;2024-02-21T02:28:32;8.73;;;2.80;;
54705;SDS011;40603;48.774;8.916;2024-02-21T02:30:57;7.75;;;2.63;;
54705;SDS011;40603;48.774;8.916;2024-02-21T02:33:22;8.77;;;2.88;;
54705;SDS011;40603;48.774;8.916;2024-02-21T02:35:48;9.88;;;2.78;;
54705;SDS011;40603;48.774;8.916;2024-02-21T02:38:13;13.90;;;3.10;;
54705;SDS011;40603;48.774;8.916;2024-02-21T02:40:41;7.45;;;3.05;;
54705;SDS011;40603;48.774;8.916;2024-02-21T02:43:06;10.02;;;2.90;;
54705;SDS011;40603;48.774;8.916;2024-02-21T02:45:31;5.20;;;2.40;;
54705;SDS011;40603;48.774;8.916;2024-02-21T02:47:57;8.23;;;2.50;;
54705;SDS011;40603;48.774;8.916;2024-02-21T02:50:23;7.75;;;2.60;;
54705;SDS011;40603;48.774;8.916;2024-02-21T02:52:48;9.95;;;2.63;;
54705;SDS011;40603;48.774;8.916;2024-02-21T02:55:14;11.65;;;2.83;;
54705;SDS011;40603;48.774;8.916;2024-02-21T02:57:39;10.23;;;2.67;;
54705;SDS011;40603;48.774;8.916;2024-02-21T03:00:06;13.40;;;3.15;;
54705;SDS011;40603;48.774;8.916;2024-02-21T03:02:32;10.52;;;2.95;;
54705;SDS011;40603;48.774;8.916;2024-02-21T03:04:58;10.80;;;2.60;;
54705;SDS011;40603;48.774;8.916;2024-02-21T03:07:24;11.48;;;2.67;;
54705;SDS011;40603;48.774;8.916;2024-02-21T03:09:49;7.55;;;2.67;;
54705;SDS011;40603;48.774;8.916;2024-02-21T03:12:15;6.57;;;2.33;;
54705;SDS011;40603;48.774;8.916;2024-02-21T03:14:48;8.90;;;2.70;;
54705;SDS011;40603;48.774;8.916;2024-02-21T03:17:14;6.75;;;2.25;;
54705;SDS011;40603;48.774;8.916;2024-02-21T03:19:39;10.50;;;2.65;;
54705;SDS011;40603;48.774;8.916;2024-02-21T03:22:04;10.18;;;2.50;;
54705;SDS011;40603;48.774;8.916;2024-02-21T03:24:31;10.75;;;2.80;;
54705;SDS011;40603;48.774;8.916;2024-02-21T03:26:56;11.77;;;2.80;;
54705;SDS011;40603;48.774;8.916;2024-02-21T03:29:21;15.68;;;3.33;;
54705;SDS011;40603;48.774;8.916;2024-02-21T03:31:47;7.03;;;2.53;;
54705;SDS011;40603;48.774;8.916;2024-02-21T03:34:12;6.30;;;2.60;;
54705;SDS011;40603;48.774;8.916;2024-02-21T03:36:37;8.60;;;2.28;;
54705;SDS011;40603;48.774;8.916;2024-02-21T03:39:02;6.97;;;2.70;;
54705;SDS011;40603;48.774;8.916;2024-02-21T03:41:28;8.23;;;2.30;;
54705;SDS011;40603;48.774;8.916;2024-02-21T03:43:53;6.65;;;2.15;;
54705;SDS011;40603;48.774;8.916;2024-02-21T03:46:19;9.02;;;2.40;;
54705;SDS011;40603;48.774;8.916;2024-02-21T03:48:44;8.80;;;2.92;;
54705;SDS011;40603;48.774;8.916;2024-02-21T03:51:10;10.18;;;2.72;;
54705;SDS011;40603;48.774;8.916;2024-02-21T03:53:36;9.05;;;2.53;;
54705;SDS011;40603;48.774;8.916;2024-02-21T03:56:01;5.90;;;2.35;;
54705;SDS011;40603;48.774;8.916;2024-02-21T03:58:28;12.15;;;2.63;;
54705;SDS011;40603;48.774;8.916;2024-02-21T04:00:54;9.32;;;2.47;;
54705;SDS011;40603;48.774;8.916;2024-02-21T04:03:19;13.43;;;2.80;;
54705;SDS011;40603;48.774;8.916;2024-02-21T04:05:45;14.57;;;3.00;;
54705;SDS011;40603;48.774;8.916;2024-02-21T04:08:10;9.43;;;2.80;;
54705;SDS011;40603;48.774;8.916;2024-02-21T04:10:36;9.65;;;2.63;;
54705;SDS011;40603;48.774;8.916;2024-02-21T04:13:01;10.32;;;2.88;;
54705;SDS011;40603;48.774;8.916;2024-02-21T04:15:27;10.13;;;2.60;;
54705;SDS011;40603;48.774;8.916;2024-02-21T04:17:52;10.90;;;3.28;;
54705;SDS011;40603;48.774;8.916;2024-02-21T04:20:18;16.63;;;3.67;;
54705;SDS011;40603;48.774;8.916;2024-02-21T04:22:43;10.90;;;3.22;;
54705;SDS011;40603;48.774;8.916;2024-02-21T04:25:09;9.63;;;2.53;;
54705;SDS011;40603;48.774;8.916;2024-02-21T04:27:35;12.55;;;3.50;;
54705;SDS011;40603;48.774;8.916;2024-02-21T04:30:01;9.75;;;2.75;;
54705;SDS011;40603;48.774;8.916;2024-02-21T04:32:26;9.88;;;2.35;;
54705;SDS011;40603;48.774;8.916;2024-02-21T04:34:52;14.95;;;2.75;;
54705;SDS011;40603;48.774;8.916;2024-02-21T04:37:18;6.10;;;2.22;;
54705;SDS011;40603;48.774;8.916;2024-02-21T04:39:43;8.85;;;3.03;;
54705;SDS011;40603;48.774;8.916;2024-02-21T04:42:09;9.63;;;2.10;;
54705;SDS011;40603;48.774;8.916;2024-02-21T04:44:34;7.65;;;2.28;;
54705;SDS011;40603;48.774;8.916;2024-02-21T04:46:59;12.75;;;2.80;;
54705;SDS011;40603;48.774;8.916;2024-02-21T04:49:25;13.65;;;3.05;;
54705;SDS011;40603;48.774;8.916;2024-02-21T04:51:50;14.40;;;3.22;;
54705;SDS011;40603;48.774;8.916;2024-02-21T04:54:15;14.35;;;2.80;;
54705;SDS011;40603;48.774;8.916;2024-02-21T04:56:40;8.63;;;2.55;;
54705;SDS011;40603;48.774;8.916;2024-02-21T04:59:06;5.82;;;2.35;;
54705;SDS011;40603;48.774;8.916;2024-02-21T05:01:31;9.38;;;2.17;;
54705;SDS011;40603;48.774;8.916;2024-02-21T05:03:56;12.27;;;2.53;;
54705;SDS011;40603;48.774;8.916;2024-02-21T05:06:22;6.38;;;2.10;;
54705;SDS011;40603;48.774;8.916;2024-02-21T05:08:47;12.68;;;2.90;;
54705;SDS011;40603;48.774;8.916;2024-02-21T05:11:12;15.80;;;2.83;;
54705;SDS011;40603;48.774;8.916;2024-02-21T05:13:38;8.07;;;2.70;;
54705;SDS011;40603;48.774;8.916;2024-02-21T05:16:03;7.75;;;2.63;;
54705;SDS011;40603;48.774;8.916;2024-02-21T05:18:29;10.23;;;2.38;;
54705;SDS011;40603;48.774;8.916;2024-02-21T05:20:54;8.50;;;3.22;;
54705;SDS011;40603;48.774;8.916;2024-02-21T05:23:19;7.85;;;2.00;;
54705;SDS011;40603;48.774;8.916;2024-02-21T05:25:44;10.02;;;2.70;;
54705;SDS011;40603;48.774;8.916;2024-02-21T05:28:10;7.97;;;2.55;;
54705;SDS011;40603;48.774;8.916;2024-02-21T05:30:35;13.27;;;2.92;;
54705;SDS011;40603;48.774;8.916;2024-02-21T05:33:04;9.82;;;2.33;;
54705;SDS011;40603;48.774;8.916;2024-02-21T05:35:32;12.70;;;2.40;;
54705;SDS011;40603;48.774;8.916;2024-02-21T05:37:57;7.90;;;2.20;;
54705;SDS011;40603;48.774;8.916;2024-02-21T05:40:22;14.05;;;2.33;;
54705;SDS011;40603;48.774;8.916;2024-02-21T05:42:48;10.52;;;2.40;;
54705;SDS011;40603;48.774;8.916;2024-02-21T05:45:13;9.55;;;2.55;;
54705;SDS011;40603;48.774;8.916;2024-02-21T05:47:40;7.93;;;2.20;;
54705;SDS011;40603;48.774;8.916;2024-02-21T05:50:06;9.82;;;2.65;;
54705;SDS011;40603;48.774;8.916;2024-02-21T05:52:31;6.50;;;2.38;;
54705;SDS011;40603;48.774;8.916;2024-02-21T05:54:56;8.40;;;2.47;;
54705;SDS011;40603;48.774;8.916;2024-02-21T05:57:21;10.82;;;2.72;;
54705;SDS011;40603;48.774;8.916;2024-02-21T05:59:47;9.48;;;2.45;;
54705;SDS011;40603;48.774;8.916;2024-02-21T06:02:12;10.30;;;2.70;;
54705;SDS011;40603;48.774;8.916;2024-02-21T06:04:37;7.05;;;2.35;;
54705;SDS011;40603;48.774;8.916;2024-02-21T06:07:04;7.18;;;2.65;;
54705;SDS011;40603;48.774;8.916;2024-02-21T06:09:29;8.95;;;2.35;;
54705;SDS011;40603;48.774;8.916;2024-02-21T06:11:55;12.40;;;2.53;;
54705;SDS011;40603;48.774;8.916;2024-02-21T06:14:20;9.63;;;2.53;;
54705;SDS011;40603;48.774;8.916;2024-02-21T06:16:45;8.43;;;2.60;;
54705;SDS011;40603;48.774;8.916;2024-02-21T06:19:11;9.35;;;2.20;;
54705;SDS011;40603;48.774;8.916;2024-02-21T06:21:36;17.70;;;2.67;;
54705;SDS011;40603;48.774;8.916;2024-02-21T06:24:02;13.98;;;2.50;;
54705;SDS011;40603;48.774;8.916;2024-02-21T06:26:27;11.20;;;2.33;;
54705;SDS011;40603;48.774;8.916;2024-02-21T06:28:52;8.75;;;2.63;;
54705;SDS011;40603;48.774;8.916;2024-02-21T06:31:18;6.68;;;2.35;;
54705;SDS011;40603;48.774;8.916;2024-02-21T06:33:43;11.10;;;2.20;;
54705;SDS011;40603;48.774;8.916;2024-02-21T06:36:08;13.30;;;2.38;;
54705;SDS011;40603;48.774;8.916;2024-02-21T06:38:34;9.38;;;2.30;;
54705;SDS011;40603;48.774;8.916;2024-02-21T06:40:59;10.50;;;2.70;;
54705;SDS011;40603;48.774;8.916;2024-02-21T06:43:25;10.35;;;2.50;;
54705;SDS011;40603;48.774;8.916;2024-02-21T06:45:51;13.40;;;2.65;;
54705;SDS011;40603;48.774;8.916;2024-02-21T06:48:17;6.72;;;2.83;;
54705;SDS011;40603;48.774;8.916;2024-02-21T06:50:45;12.48;;;2.90;;
54705;SDS011;40603;48.774;8.916;2024-02-21T06:53:10;7.03;;;2.67;;
54705;SDS011;40603;48.774;8.916;2024-02-21T06:55:35;11.55;;;3.20;;
54705;SDS011;40603;48.774;8.916;2024-02-21T06:58:01;6.72;;;2.55;;
54705;SDS011;40603;48.774;8.916;2024-02-21T07:00:27;11.60;;;2.53;;
54705;SDS011;40603;48.774;8.916;2024-02-21T07:02:53;6.28;;;2.15;;
54705;SDS011;40603;48.774;8.916;2024-02-21T07:05:19;6.65;;;2.50;;
54705;SDS011;40603;48.774;8.916;2024-02-21T07:07:44;9.10;;;2.30;;
54705;SDS011;40603;48.774;8.916;2024-02-21T07:10:09;10.88;;;2.72;;
54705;SDS011;40603;48.774;8.916;2024-02-21T07:12:35;7.05;;;2.63;;
54705;SDS011;40603;48.774;8.916;2024-02-21T07:15:03;13.95;;;2.67;;
54705;SDS011;40603;48.774;8.916;2024-02-21T07:17:29;10.13;;;2.05;;
54705;SDS011;40603;48.774;8.916;2024-02-21T07:19:54;12.38;;;2.50;;
54705;SDS011;40603;48.774;8.916;2024-02-21T07:22:21;10.77;;;2.05;;
54705;SDS011;40603;48.774;8.916;2024-02-21T07:24:47;10.07;;;2.55;;
54705;SDS011;40603;48.774;8.916;2024-02-21T07:27:15;8.57;;;2.42;;
54705;SDS011;40603;48.774;8.916;2024-02-21T07:29:40;6.22;;;2.22;;
54705;SDS011;40603;48.774;8.916;2024-02-21T07:32:06;12.75;;;2.50;;
54705;SDS011;40603;48.774;8.916;2024-02-21T07:34:31;10.27;;;2.60;;
54705;SDS011;40603;48.774;8.916;2024-02-21T07:36:57;6.72;;;2.15;;
54705;SDS011;40603;48.774;8.916;2024-02-21T07:39:22;5.60;;;2.47;;
54705;SDS011;40603;48.774;8.916;2024-02-21T07:41:47;6.00;;;2.17;;
54705;SDS011;40603;48.774;8.916;2024-02-21T07:44:14;9.48;;;2.28;;
54705;SDS011;40603;48.774;8.916;2024-02-21T07:46:39;5.45;;;2.03;;
54705;SDS011;40603;48.774;8.916;2024-02-21T07:49:04;6.40;;;2.67;;
54705;SDS011;40603;48.774;8.916;2024-02-21T07:51:30;12.60;;;2.67;;
54705;SDS011;40603;48.774;8.916;2024-02-21T07:53:55;7.80;;;1.92;;
54705;SDS011;40603;48.774;8.916;2024-02-21T07:56:20;3.17;;;1.45;;
54705;SDS011;40603;48.774;8.916;2024-02-21T07:58:46;6.45;;;1.80;;
54705;SDS011;40603;48.774;8.916;2024-02-21T08:01:11;7.65;;;2.10;;
54705;SDS011;40603;48.774;8.916;2024-02-21T08:03:36;10.18;;;2.25;;
54705;SDS011;40603;48.774;8.916;2024-02-21T08:06:02;6.07;;;1.63;;
54705;SDS011;40603;48.774;8.916;2024-02-21T08:08:28;7.40;;;2.00;;
54705;SDS011;40603;48.774;8.916;2024-02-21T08:10:53;8.68;;;2.13;;
54705;SDS011;40603;48.774;8.916;2024-02-21T08:13:19;8.48;;;2.42;;
54705;SDS011;40603;48.774;8.916;2024-02-21T08:15:44;6.70;;;1.90;;
54705;SDS011;40603;48.774;8.916;2024-02-21T08:18:09;11.88;;;2.33;;
54705;SDS011;40603;48.774;8.916;2024-02-21T08:20:35;8.15;;;2.08;;
54705;SDS011;40603;48.774;8.916;2024-02-21T08:23:00;5.25;;;1.90;;
54705;SDS011;40603;48.774;8.916;2024-02-21T08:25:26;9.85;;;2.15;;
54705;SDS011;40603;48.774;8.916;2024-02-21T08:27:53;6.22;;;1.90;;
54705;SDS011;40603;48.774;8.916;2024-02-21T08:30:23;5.18;;;1.48;;
54705;SDS011;40603;48.774;8.916;2024-02-21T08:32:48;5.18;;;2.35;;
54705;SDS011;40603;48.774;8.916;2024-02-21T08:35:14;10.55;;;2.10;;
54705;SDS011;40603;48.774;8.916;2024-02-21T08:37:39;6.43;;;1.67;;
54705;SDS011;40603;48.774;8.916;2024-02-21T08:40:05;9.32;;;2.00;;
54705;SDS011;40603;48.774;8.916;2024-02-21T08:42:34;11.05;;;1.88;;
54705;SDS011;40603;48.774;8.916;2024-02-21T08:45:00;8.02;;;2.15;;
54705;SDS011;40603;48.774;8.916;2024-02-21T08:47:25;7.75;;;1.70;;
54705;SDS011;40603;48.774;8.916;2024-02-21T08:49:50;7.28;;;1.90;;
54705;SDS011;40603;48.774;8.916;2024-02-21T08:52:16;6.40;;;1.75;;
54705;SDS011;40603;48.774;8.916;2024-02-21T08:54:41;6.50;;;2.75;;
54705;SDS011;40603;48.774;8.916;2024-02-21T08:57:06;6.72;;;1.70;;
54705;SDS011;40603;48.774;8.916;2024-02-21T08:59:32;10.60;;;2.00;;
54705;SDS011;40603;48.774;8.916;2024-02-21T09:01:58;5.72;;;1.80;;
54705;SDS011;40603;48.774;8.916;2024-02-21T09:04:23;7.65;;;1.95;;
54705;SDS011;40603;48.774;8.916;2024-02-21T09:06:48;11.35;;;2.38;;
54705;SDS011;40603;48.774;8.916;2024-02-21T09:09:14;11.68;;;2.50;;
54705;SDS011;40603;48.774;8.916;2024-02-21T09:11:39;9.98;;;2.00;;
54705;SDS011;40603;48.774;8.916;2024-02-21T09:14:05;3.88;;;1.60;;
54705;SDS011;40603;48.774;8.916;2024-02-21T09:16:34;4.72;;;1.60;;
54705;SDS011;40603;48.774;8.916;2024-02-21T09:18:59;7.85;;;2.10;;
54705;SDS011;40603;48.774;8.916;2024-02-21T09:21:25;6.15;;;2.00;;
54705;SDS011;40603;48.774;8.916;2024-02-21T09:23:50;6.43;;;1.83;;
54705;SDS011;40603;48.774;8.916;2024-02-21T09:26:16;12.85;;;2.20;;
54705;SDS011;40603;48.774;8.916;2024-02-21T09:28:42;7.25;;;1.77;;
54705;SDS011;40603;48.774;8.916;2024-02-21T09:31:08;9.27;;;2.05;;
54705;SDS011;40603;48.774;8.916;2024-02-21T09:33:33;7.53;;;1.98;;
54705;SDS011;40603;48.774;8.916;2024-02-21T09:35:58;6.88;;;1.98;;
54705;SDS011;40603;48.774;8.916;2024-02-21T09:38:24;9.05;;;2.00;;
54705;SDS011;40603;48.774;8.916;2024-02-21T09:40:55;5.63;;;1.27;;
54705;SDS011;40603;48.774;8.916;2024-02-21T09:43:24;10.48;;;1.77;;
54705;SDS011;40603;48.774;8.916;2024-02-21T09:45:50;6.03;;;1.70;;
54705;SDS011;40603;48.774;8.916;2024-02-21T09:48:25;8.98;;;1.98;;
54705;SDS011;40603;48.774;8.916;2024-02-21T09:51:02;8.10;;;1.63;;
54705;SDS011;40603;48.774;8.916;2024-02-21T09:53:27;7.13;;;1.70;;
54705;SDS011;40603;48.774;8.916;2024-02-21T09:55:54;7.40;;;2.08;;
54705;SDS011;40603;48.774;8.916;2024-02-21T09:58:20;8.05;;;2.03;;
54705;SDS011;40603;48.774;8.916;2024-02-21T10:00:45;5.72;;;1.65;;
54705;SDS011;40603;48.774;8.916;2024-02-21T10:03:11;10.68;;;2.67;;
54705;SDS011;40603;48.774;8.916;2024-02-21T10:05:36;8.65;;;1.80;;
54705;SDS011;40603;48.774;8.916;2024-02-21T10:08:02;8.88;;;1.80;;
54705;SDS011;40603;48.774;8.916;2024-02-21T10:10:28;4.40;;;1.50;;
54705;SDS011;40603;48.774;8.916;2024-02-21T10:12:54;7.35;;;1.38;;
54705;SDS011;40603;48.774;8.916;2024-02-21T10:15:20;5.85;;;1.55;;
54705;SDS011;40603;48.774;8.916;2024-02-21T10:17:47;9.43;;;1.65;;
54705;SDS011;40603;48.774;8.916;2024-02-21T10:20:13;7.95;;;1.48;;
54705;SDS011;40603;48.774;8.916;2024-02-21T10:22:40;6.00;;;1.70;;
54705;SDS011;40603;48.774;8.916;2024-02-21T10:25:12;9.90;;;2.03;;
54705;SDS011;40603;48.774;8.916;2024-02-21T10:27:38;7.30;;;1.65;;
54705;SDS011;40603;48.774;8.916;2024-02-21T10:30:07;7.57;;;1.77;;
54705;SDS011;40603;48.774;8.916;2024-02-21T10:32:33;8.70;;;1.47;;
54705;SDS011;40603;48.774;8.916;2024-02-21T10:35:02;9.05;;;1.77;;
54705;SDS011;40603;48.774;8.916;2024-02-21T10:37:29;7.40;;;1.40;;
54705;SDS011;40603;48.774;8.916;2024-02-21T10:39:55;5.22;;;1.50;;
54705;SDS011;40603;48.774;8.916;2024-02-21T10:42:21;8.38;;;2.17;;
54705;SDS011;40603;48.774;8.916;2024-02-21T10:44:47;7.80;;;1.30;;
54705;SDS011;40603;48.774;8.916;2024-02-21T10:47:16;8.05;;;1.45;;
54705;SDS011;40603;48.774;8.916;2024-02-21T10:49:46;5.72;;;1.40;;
54705;SDS011;40603;48.774;8.916;2024-02-21T10:53:03;7.18;;;1.58;;
54705;SDS011;40603;48.774;8.916;2024-02-21T10:55:26;4.68;;;1.23;;
54705;SDS011;40603;48.774;8.916;2024-02-21T10:57:56;8.63;;;1.52;;
54705;SDS011;40603;48.774;8.916;2024-02-21T11:00:22;7.85;;;2.40;;
54705;SDS011;40603;48.774;8.916;2024-02-21T11:02:52;6.32;;;1.85;;
54705;SDS011;40603;48.774;8.916;2024-02-21T11:05:17;6.38;;;1.92;;
54705;SDS011;40603;48.774;8.916;2024-02-21T11:07:43;6.65;;;2.40;;
54705;SDS011;40603;48.774;8.916;2024-02-21T11:10:20;5.97;;;1.55;;
54705;SDS011;40603;48.774;8.916;2024-02-21T11:12:47;6.40;;;1.67;;
54705;SDS011;40603;48.774;8.916;2024-02-21T11:15:13;5.75;;;1.88;;
54705;SDS011;40603;48.774;8.916;2024-02-21T11:17:38;3.53;;;1.40;;
54705;SDS011;40603;48.774;8.916;2024-02-21T11:20:13;6.43;;;1.88;;
54705;SDS011;40603;48.774;8.916;2024-02-21T11:22:41;5.65;;;1.33;;
54705;SDS011;40603;48.774;8.916;2024-02-21T11:25:07;5.00;;;1.50;;
54705;SDS011;40603;48.774;8.916;2024-02-21T11:27:36;7.55;;;1.90;;
54705;SDS011;40603;48.774;8.916;2024-02-21T11:30:03;6.63;;;1.38;;
54705;SDS011;40603;48.774;8.916;2024-02-21T11:32:31;7.18;;;1.50;;
54705;SDS011;40603;48.774;8.916;2024-02-21T11:34:56;3.90;;;1.30;;
54705;SDS011;40603;48.774;8.916;2024-02-21T11:37:32;9.38;;;1.30;;
54705;SDS011;40603;48.774;8.916;2024-02-21T11:40:04;3.92;;;1.27;;
54705;SDS011;40603;48.774;8.916;2024-02-21T11:42:32;7.38;;;1.35;;
54705;SDS011;40603;48.774;8.916;2024-02-21T11:44:57;3.53;;;1.20;;
54705;SDS011;40603;48.774;8.916;2024-02-21T11:47:23;2.08;;;1.00;;
54705;SDS011;40603;48.774;8.916;2024-02-21T11:49:48;3.38;;;1.20;;
54705;SDS011;40603;48.774;8.916;2024-02-21T11:52:18;6.00;;;1.52;;
54705;SDS011;40603;48.774;8.916;2024-02-21T11:54:47;4.10;;;1.45;;
54705;SDS011;40603;48.774;8.916;2024-02-21T11:57:12;4.15;;;1.10;;
54705;SDS011;40603;48.774;8.916;2024-02-21T11:59:39;4.53;;;1.20;;
54705;SDS011;40603;48.774;8.916;2024-02-21T12:02:05;5.35;;;1.20;;
54705;SDS011;40603;48.774;8.916;2024-02-21T12:04:30;6.82;;;1.10;;
54705;SDS011;40603;48.774;8.916;2024-02-21T12:06:57;3.40;;;1.20;;
54705;SDS011;40603;48.774;8.916;2024-02-21T12:09:23;4.30;;;1.27;;
54705;SDS011;40603;48.774;8.916;2024-02-21T12:11:57;4.22;;;1.00;;
54705;SDS011;40603;48.774;8.916;2024-02-21T12:14:30;3.85;;;1.40;;
54705;SDS011;40603;48.774;8.916;2024-02-21T12:16:55;2.28;;;1.23;;
54705;SDS011;40603;48.774;8.916;2024-02-21T12:19:21;5.10;;;1.25;;
54705;SDS011;40603;48.774;8.916;2024-02-21T12:21:47;4.28;;;1.13;;
54705;SDS011;40603;48.774;8.916;2024-02-21T12:24:27;4.78;;;1.48;;
54705;SDS011;40603;48.774;8.916;2024-02-21T12:26:54;3.85;;;1.65;;
54705;SDS011;40603;48.774;8.916;2024-02-21T12:29:20;3.95;;;1.33;;
54705;SDS011;40603;48.774;8.916;2024-02-21T12:31:46;6.15;;;1.13;;
54705;SDS011;40603;48.774;8.916;2024-02-21T12:34:11;5.68;;;1.05;;
54705;SDS011;40603;48.774;8.916;2024-02-21T12:36:43;2.83;;;0.90;;
54705;SDS011;40603;48.774;8.916;2024-02-21T12:39:10;4.43;;;1.08;;
54705;SDS011;40603;48.774;8.916;2024-02-21T12:41:36;2.80;;;0.90;;
54705;SDS011;40603;48.774;8.916;2024-02-21T12:44:03;1.60;;;0.88;;
54705;SDS011;40603;48.774;8.916;2024-02-21T12:46:35;3.15;;;1.00;;
54705;SDS011;40603;48.774;8.916;2024-02-21T12:49:01;3.15;;;1.02;;
54705;SDS011;40603;48.774;8.916;2024-02-21T12:51:27;4.05;;;1.10;;
54705;SDS011;40603;48.774;8.916;2024-02-21T12:53:53;5.35;;;1.30;;
54705;SDS011;40603;48.774;8.916;2024-02-21T12:56:18;3.08;;;1.15;;
54705;SDS011;40603;48.774;8.916;2024-02-21T12:58:44;3.70;;;1.10;;
54705;SDS011;40603;48.774;8.916;2024-02-21T13:01:09;1.50;;;0.80;;
54705;SDS011;40603;48.774;8.916;2024-02-21T13:03:35;3.50;;;0.90;;
54705;SDS011;40603;48.774;8.916;2024-02-21T13:06:00;2.60;;;0.93;;
54705;SDS011;40603;48.774;8.916;2024-02-21T13:08:26;5.55;;;1.13;;
54705;SDS011;40603;48.774;8.916;2024-02-21T13:10:51;1.60;;;0.70;;
54705;SDS011;40603;48.774;8.916;2024-02-21T13:13:16;2.97;;;0.70;;
54705;SDS011;40603;48.774;8.916;2024-02-21T13:15:42;2.90;;;0.80;;
54705;SDS011;40603;48.774;8.916;2024-02-21T13:18:08;3.63;;;1.20;;
54705;SDS011;40603;48.774;8.916;2024-02-21T13:20:34;4.38;;;0.95;;
54705;SDS011;40603;48.774;8.916;2024-02-21T13:22:59;2.50;;;1.00;;
54705;SDS011;40603;48.774;8.916;2024-02-21T13:25:24;3.08;;;0.80;;
54705;SDS011;40603;48.774;8.916;2024-02-21T13:27:50;1.55;;;0.90;;
54705;SDS011;40603;48.774;8.916;2024-02-21T13:30:15;3.53;;;1.30;;
54705;SDS011;40603;48.774;8.916;2024-02-21T13:32:41;2.50;;;1.05;;
54705;SDS011;40603;48.774;8.916;2024-02-21T13:35:07;2.75;;;0.85;;
54705;SDS011;40603;48.774;8.916;2024-02-21T13:37:33;2.25;;;0.95;;
54705;SDS011;40603;48.774;8.916;2024-02-21T13:39:59;1.38;;;0.90;;
54705;SDS011;40603;48.774;8.916;2024-02-21T13:42:24;2.88;;;0.73;;
54705;SDS011;40603;48.774;8.916;2024-02-21T13:44:52;1.50;;;0.80;;
54705;SDS011;40603;48.774;8.916;2024-02-21T13:47:18;2.63;;;0.60;;
54705;SDS011;40603;48.774;8.916;2024-02-21T13:49:43;2.50;;;0.82;;
54705;SDS011;40603;48.774;8.916;2024-02-21T13:52:08;1.30;;;0.60;;
54705;SDS011;40603;48.774;8.916;2024-02-21T13:54:34;0.85;;;0.60;;
54705;SDS011;40603;48.774;8.916;2024-02-21T13:56:59;2.03;;;0.60;;
54705;SDS011;40603;48.774;8.916;2024-02-21T13:59:26;1.00;;;0.60;;
54705;SDS011;40603;48.774;8.916;2024-02-21T14:01:51;1.27;;;0.55;;
54705;SDS011;40603;48.774;8.916;2024-02-21T14:04:17;1.45;;;0.80;;
54705;SDS011;40603;48.774;8.916;2024-02-21T14:06:42;1.00;;;0.60;;
54705;SDS011;40603;48.774;8.916;2024-02-21T14:09:08;3.63;;;0.73;;
54705;SDS011;40603;48.774;8.916;2024-02-21T14:11:34;3.47;;;0.80;;
54705;SDS011;40603;48.774;8.916;2024-02-21T14:14:00;1.40;;;0.60;;
54705;SDS011;40603;48.774;8.916;2024-02-21T14:16:25;1.58;;;0.60;;
54705;SDS011;40603;48.774;8.916;2024-02-21T14:18:50;0.80;;;0.50;;
54705;SDS011;40603;48.774;8.916;2024-02-21T14:21:16;2.50;;;0.73;;
54705;SDS011;40603;48.774;8.916;2024-02-21T14:23:41;3.78;;;0.73;;
54705;SDS011;40603;48.774;8.916;2024-02-21T14:26:06;2.00;;;0.63;;
54705;SDS011;40603;48.774;8.916;2024-02-21T14:28:32;1.05;;;0.70;;
54705;SDS011;40603;48.774;8.916;2024-02-21T14:31:00;1.48;;;0.68;;
54705;SDS011;40603;48.774;8.916;2024-02-21T14:33:29;0.82;;;0.60;;
54705;SDS011;40603;48.774;8.916;2024-02-21T14:35:55;0.85;;;0.60;;